createdAt,value
2022-11-30T00:02:04.260Z,37.30
2022-11-30T00:04:26.922Z,36.30
2022-11-30T00:06:49.653Z,36.95
2022-11-30T00:09:13.230Z,39.75
2022-11-30T00:11:35.897Z,40.38
2022-11-30T00:13:58.451Z,37.55
2022-11-30T00:16:21.960Z,36.37
2022-11-30T00:18:44.553Z,36.58
2022-11-30T00:21:10.542Z,40.20
2022-11-30T00:23:37.559Z,35.17
2022-11-30T00:26:05.660Z,34.80
2022-11-30T00:28:30.832Z,33.30
2022-11-30T00:31:04.931Z,34.63
2022-11-30T00:33:28.323Z,35.25
2022-11-30T00:35:58.505Z,37.65
2022-11-30T00:38:21.093Z,35.20
2022-11-30T00:40:43.624Z,38.20
2022-11-30T00:43:06.407Z,36.70
2022-11-30T00:45:28.952Z,35.20
2022-11-30T00:47:51.805Z,36.25
2022-11-30T00:50:14.379Z,35.38
2022-11-30T00:52:36.902Z,31.20
2022-11-30T00:55:02.799Z,33.42
2022-11-30T00:57:26.554Z,34.20
2022-11-30T00:59:49.153Z,35.25
2022-11-30T01:02:12.776Z,38.75
2022-11-30T01:04:35.375Z,31.80
2022-11-30T01:06:57.859Z,33.67
2022-11-30T01:09:20.448Z,34.13
2022-11-30T01:11:43.111Z,34.70
2022-11-30T01:14:05.757Z,32.67
2022-11-30T01:16:32.009Z,33.97
2022-11-30T01:18:55.052Z,37.28
2022-11-30T01:21:21.005Z,33.28
2022-11-30T01:23:44.207Z,32.17
2022-11-30T01:26:08.259Z,31.70
2022-11-30T01:28:31.399Z,29.83
2022-11-30T01:31:05.473Z,29.98
2022-11-30T01:33:28.147Z,30.92
2022-11-30T01:35:59.201Z,31.83
2022-11-30T01:38:21.793Z,30.33
2022-11-30T01:40:50.678Z,31.37
2022-11-30T01:43:13.298Z,27.95
2022-11-30T01:45:35.857Z,32.03
2022-11-30T01:47:58.579Z,29.58
2022-11-30T01:50:41.492Z,27.10
2022-11-30T01:53:05.521Z,26.57
2022-11-30T01:55:28.138Z,26.70
2022-11-30T01:57:53.087Z,28.00
2022-11-30T02:00:16.420Z,26.42
2022-11-30T02:02:56.830Z,22.92
2022-11-30T02:05:21.109Z,26.70
2022-11-30T02:07:44.271Z,25.45
2022-11-30T02:10:07.473Z,24.73
2022-11-30T02:12:56.611Z,26.13
2022-11-30T02:15:25.207Z,22.58
2022-11-30T02:18:01.810Z,24.53
2022-11-30T02:20:33.569Z,26.48
2022-11-30T02:23:15.369Z,25.15
2022-11-30T02:26:03.568Z,24.27
2022-11-30T02:28:32.283Z,27.15
2022-11-30T02:30:57.984Z,24.50
2022-11-30T02:33:27.020Z,24.08
2022-11-30T02:35:55.345Z,24.75
2022-11-30T02:38:24.044Z,25.42
2022-11-30T02:40:46.630Z,26.48
2022-11-30T02:43:09.336Z,24.67
2022-11-30T02:45:40.775Z,27.98
2022-11-30T02:48:11.727Z,26.83
2022-11-30T02:50:52.868Z,25.92
2022-11-30T02:53:15.501Z,26.40
2022-11-30T02:55:38.174Z,30.60
2022-11-30T02:58:01.278Z,26.15
2022-11-30T03:00:24.252Z,27.27
2022-11-30T03:02:47.901Z,28.83
2022-11-30T03:05:10.354Z,24.08
2022-11-30T03:07:33.036Z,24.97
2022-11-30T03:09:55.970Z,25.10
2022-11-30T03:12:18.512Z,25.92
2022-11-30T03:14:41.189Z,25.63
2022-11-30T03:17:04.237Z,25.27
2022-11-30T03:19:27.000Z,25.93
2022-11-30T03:21:49.577Z,25.13
2022-11-30T03:24:12.224Z,26.38
2022-11-30T03:26:34.845Z,24.35
2022-11-30T03:28:57.434Z,26.30
2022-11-30T03:31:20.068Z,24.87
2022-11-30T03:33:43.600Z,26.42
2022-11-30T03:36:08.699Z,22.73
2022-11-30T03:38:31.902Z,26.48
2022-11-30T03:41:08.707Z,26.73
2022-11-30T03:43:31.399Z,22.80
2022-11-30T03:45:53.972Z,24.75
2022-11-30T03:48:16.496Z,26.25
2022-11-30T03:50:39.083Z,25.88
2022-11-30T03:53:01.699Z,28.58
2022-11-30T03:55:24.236Z,26.23
2022-11-30T03:57:46.849Z,26.83
2022-11-30T04:00:09.963Z,26.73
2022-11-30T04:02:38.944Z,26.42
2022-11-30T04:05:04.516Z,26.00
2022-11-30T04:07:27.159Z,25.37
2022-11-30T04:09:49.971Z,25.95
2022-11-30T04:12:12.667Z,26.02
2022-11-30T04:14:35.288Z,25.20
2022-11-30T04:16:57.739Z,24.00
2022-11-30T04:19:20.432Z,28.53
2022-11-30T04:21:43.081Z,24.27
2022-11-30T04:24:06.134Z,26.05
2022-11-30T04:26:28.749Z,27.00
2022-11-30T04:28:51.325Z,27.80
2022-11-30T04:31:14.110Z,24.23
2022-11-30T04:33:37.147Z,25.80
2022-11-30T04:36:03.475Z,26.00
2022-11-30T04:38:26.981Z,23.75
2022-11-30T04:40:49.911Z,25.05
2022-11-30T04:43:13.303Z,24.17
2022-11-30T04:45:35.942Z,24.27
2022-11-30T04:47:58.596Z,22.58
2022-11-30T04:50:21.277Z,23.30
2022-11-30T04:52:43.984Z,23.67
2022-11-30T04:55:06.953Z,24.37
2022-11-30T04:57:30.053Z,25.33
2022-11-30T04:59:53.201Z,24.08
2022-11-30T05:02:16.060Z,24.10
2022-11-30T05:04:38.695Z,25.35
2022-11-30T05:07:01.654Z,26.13
2022-11-30T05:09:24.352Z,24.55
2022-11-30T05:11:48.659Z,24.45
2022-11-30T05:14:11.263Z,23.52
2022-11-30T05:16:33.965Z,24.05
2022-11-30T05:18:56.700Z,23.90
2022-11-30T05:21:19.331Z,26.33
2022-11-30T05:23:41.870Z,25.02
2022-11-30T05:26:04.472Z,24.77
2022-11-30T05:28:26.946Z,28.30
2022-11-30T05:30:49.536Z,23.67
2022-11-30T05:33:12.448Z,24.50
2022-11-30T05:35:36.641Z,24.27
2022-11-30T05:37:59.317Z,27.40
2022-11-30T05:40:21.926Z,24.00
2022-11-30T05:42:44.535Z,25.63
2022-11-30T05:45:07.780Z,27.38
2022-11-30T05:47:30.328Z,24.17
2022-11-30T05:49:52.941Z,24.98
2022-11-30T05:52:15.517Z,24.83
2022-11-30T05:54:38.128Z,23.77
2022-11-30T05:57:00.764Z,26.00
2022-11-30T05:59:23.820Z,24.10
2022-11-30T06:01:46.491Z,25.52
2022-11-30T06:04:09.243Z,26.38
2022-11-30T06:06:32.605Z,27.90
2022-11-30T06:08:55.484Z,28.00
2022-11-30T06:11:18.307Z,31.35
2022-11-30T06:13:41.412Z,30.00
2022-11-30T06:16:05.214Z,37.25
2022-11-30T06:18:28.178Z,34.03
2022-11-30T06:20:50.808Z,34.17
2022-11-30T06:23:13.461Z,36.33
2022-11-30T06:25:36.101Z,29.38
2022-11-30T06:27:59.271Z,29.40
2022-11-30T06:30:22.298Z,27.37
2022-11-30T06:32:45.951Z,25.33
2022-11-30T06:35:08.855Z,26.50
2022-11-30T06:37:35.012Z,27.35
2022-11-30T06:40:06.388Z,24.58
2022-11-30T06:42:31.935Z,26.60
2022-11-30T06:44:54.452Z,24.83
2022-11-30T06:47:17.124Z,26.45
2022-11-30T06:49:39.761Z,25.08
2022-11-30T06:52:02.412Z,25.38
2022-11-30T06:54:24.928Z,22.17
2022-11-30T06:56:48.643Z,24.02
2022-11-30T06:59:11.425Z,23.60
2022-11-30T07:01:34.098Z,23.63
2022-11-30T07:03:56.755Z,24.17
2022-11-30T07:06:20.990Z,25.00
2022-11-30T07:08:44.258Z,23.08
2022-11-30T07:11:08.764Z,21.63
2022-11-30T07:13:31.458Z,20.70
2022-11-30T07:15:54.118Z,21.75
2022-11-30T07:18:17.040Z,24.30
2022-11-30T07:20:40.646Z,19.80
2022-11-30T07:23:22.710Z,21.27
2022-11-30T07:26:04.579Z,20.83
2022-11-30T07:28:27.438Z,20.48
2022-11-30T07:30:50.336Z,18.37
2022-11-30T07:33:13.354Z,20.67
2022-11-30T07:35:36.361Z,19.27
2022-11-30T07:37:59.423Z,18.60
2022-11-30T07:40:22.236Z,21.08
2022-11-30T07:42:44.936Z,17.30
2022-11-30T07:45:08.163Z,18.83
2022-11-30T07:47:30.979Z,17.10
2022-11-30T07:49:53.859Z,18.17
2022-11-30T07:53:31.842Z,16.17
2022-11-30T07:56:17.673Z,17.90
2022-11-30T07:58:41.718Z,17.98
2022-11-30T08:26:35.161Z,17.48
